Weather at Southern Illinois Airport

Public forecast

Using degrees Fahrenheit for public forecast. Weather courtesy of forecast.io.

Current aviation weather report (METAR) for Southern Illinois Airport

Retrieved 2021/07/30 19:29 UTC (24 minutes ago):

KMDH 301929Z 00000KT 10SM BKN031 29/23 A3005 RMK AO2 T02940233

Closest aviation forecast (TAF) to Southern Illinois Airport

Closest forecast is Cape Girardeau Regional Airport, 36.5 nm (67.6 km) SSW. Retrieved 2021/07/30 18:22 UTC (2 hours ago):

TAF KCGI 301720Z 3018/3118 VRB03KT P6SM SCT025 FM310000 05005KT P6SM SCT250